createdAt,value
2018-05-25T00:00:10.508Z,5.53
2018-05-25T00:02:38.154Z,4.73
2018-05-25T00:05:06.316Z,4.00
2018-05-25T00:07:34.100Z,5.37
2018-05-25T00:10:02.592Z,5.73
2018-05-25T00:12:30.251Z,6.93
2018-05-25T00:14:58.141Z,6.40
2018-05-25T00:17:26.198Z,8.00
2018-05-25T00:19:54.464Z,8.00
2018-05-25T00:22:22.153Z,7.40
2018-05-25T00:24:50.027Z,6.07
2018-05-25T00:27:17.681Z,7.10
2018-05-25T00:29:45.794Z,8.00
2018-05-25T00:32:13.444Z,6.17
2018-05-25T00:34:41.095Z,6.83
2018-05-25T00:37:08.730Z,7.47
2018-05-25T00:39:36.400Z,6.77
2018-05-25T00:42:04.243Z,6.60
2018-05-25T00:44:31.899Z,5.50
2018-05-25T00:46:59.997Z,5.23
2018-05-25T00:49:28.767Z,4.70
2018-05-25T00:51:57.129Z,4.93
2018-05-25T00:54:24.990Z,4.77
2018-05-25T00:56:52.583Z,4.77
2018-05-25T00:59:20.247Z,5.00
2018-05-25T01:01:47.920Z,5.37
2018-05-25T01:04:15.583Z,5.50
2018-05-25T01:06:43.205Z,6.10
2018-05-25T01:09:11.110Z,5.63
2018-05-25T01:11:38.823Z,5.40
2018-05-25T01:14:06.437Z,5.73
2018-05-25T01:16:34.056Z,5.30
2018-05-25T01:19:01.707Z,5.47
2018-05-25T01:21:30.048Z,5.37
2018-05-25T01:23:57.632Z,5.30
2018-05-25T01:26:25.410Z,6.00
2018-05-25T01:28:53.321Z,4.30
2018-05-25T01:31:21.106Z,5.60
2018-05-25T01:33:48.895Z,5.20
2018-05-25T01:36:16.673Z,6.00
2018-05-25T01:38:44.263Z,5.43
2018-05-25T01:41:12.053Z,4.13
2018-05-25T01:43:39.729Z,5.20
2018-05-25T01:46:07.476Z,4.83
2018-05-25T01:48:35.105Z,5.77
2018-05-25T01:51:02.749Z,6.13
2018-05-25T01:53:30.350Z,6.10
2018-05-25T01:55:57.976Z,5.77
2018-05-25T01:58:25.590Z,6.20
2018-05-25T02:00:53.282Z,4.53
2018-05-25T02:03:20.881Z,5.10
2018-05-25T02:05:48.524Z,4.43
2018-05-25T02:08:16.231Z,4.60
2018-05-25T02:10:44.164Z,4.40
2018-05-25T02:13:12.434Z,4.73
2018-05-25T02:15:40.779Z,4.93
2018-05-25T02:18:08.639Z,5.07
2018-05-25T02:20:36.276Z,5.43
2018-05-25T02:23:03.942Z,5.90
2018-05-25T02:25:31.768Z,5.50
2018-05-25T02:27:59.472Z,5.50
2018-05-25T02:30:27.455Z,5.23
2018-05-25T02:32:55.523Z,6.53
2018-05-25T02:35:23.200Z,5.10
2018-05-25T02:37:50.827Z,4.53
2018-05-25T02:40:18.601Z,4.87
2018-05-25T02:42:48.085Z,6.10
2018-05-25T02:45:15.783Z,5.00
2018-05-25T02:47:43.606Z,5.30
2018-05-25T02:50:11.414Z,4.13
2018-05-25T02:52:39.068Z,4.20
2018-05-25T02:55:06.670Z,5.17
2018-05-25T02:57:34.995Z,5.57
2018-05-25T03:00:02.671Z,5.10
2018-05-25T03:02:30.458Z,6.10
2018-05-25T03:04:58.198Z,5.50
2018-05-25T03:07:25.871Z,4.13
2018-05-25T03:09:53.829Z,5.13
2018-05-25T03:12:21.595Z,6.20
2018-05-25T03:14:49.229Z,4.90
2018-05-25T03:17:17.064Z,5.70
2018-05-25T03:19:44.780Z,5.70
2018-05-25T03:22:12.556Z,5.70
2018-05-25T03:24:40.994Z,4.90
2018-05-25T03:27:08.646Z,4.90
2018-05-25T03:29:36.404Z,4.93
2018-05-25T03:32:04.820Z,4.47
2018-05-25T03:34:33.537Z,5.17
2018-05-25T03:37:01.150Z,5.60
2018-05-25T03:39:28.857Z,4.80
2018-05-25T03:41:57.152Z,5.00
2018-05-25T03:44:24.813Z,5.33
2018-05-25T03:46:52.506Z,5.07
2018-05-25T03:49:20.162Z,4.80
2018-05-25T03:51:48.012Z,6.63
2018-05-25T03:54:15.720Z,6.20
2018-05-25T03:56:43.350Z,6.67
2018-05-25T03:59:22.788Z,7.70
2018-05-25T04:01:57.374Z,6.73
2018-05-25T04:04:25.949Z,5.90
2018-05-25T04:06:53.627Z,6.37
2018-05-25T04:09:21.482Z,6.10
2018-05-25T04:11:49.327Z,5.73
2018-05-25T04:14:17.028Z,5.20
2018-05-25T04:16:44.876Z,5.87
2018-05-25T04:19:12.619Z,6.60
2018-05-25T04:21:40.207Z,5.60
2018-05-25T04:24:08.044Z,6.80
2018-05-25T04:26:35.782Z,5.77
2018-05-25T04:29:03.912Z,6.23
2018-05-25T04:31:31.571Z,5.47
2018-05-25T04:33:59.233Z,6.10
2018-05-25T04:36:27.423Z,5.60
2018-05-25T04:38:55.107Z,4.67
2018-05-25T04:41:22.997Z,5.00
2018-05-25T04:43:51.022Z,4.53
2018-05-25T04:46:18.685Z,5.23
2018-05-25T04:48:47.163Z,5.23
2018-05-25T04:51:14.826Z,4.40
2018-05-25T04:53:42.488Z,5.13
2018-05-25T04:56:10.357Z,5.60
2018-05-25T04:58:37.956Z,5.00
2018-05-25T05:01:05.878Z,5.77
2018-05-25T05:03:33.759Z,4.73
2018-05-25T05:06:01.531Z,4.63
2018-05-25T05:08:29.267Z,5.60
2018-05-25T05:10:57.038Z,5.40
2018-05-25T05:13:24.662Z,5.67
2018-05-25T05:15:52.531Z,4.90
2018-05-25T05:18:20.338Z,5.57
2018-05-25T05:20:48.592Z,5.63
2018-05-25T05:23:17.351Z,6.33
2018-05-25T05:25:45.603Z,5.80
2018-05-25T05:28:13.328Z,9.40
2018-05-25T05:30:40.982Z,7.30
2018-05-25T05:33:08.863Z,8.13
2018-05-25T05:35:36.542Z,10.30
2018-05-25T05:38:05.843Z,8.50
2018-05-25T05:40:33.455Z,8.23
2018-05-25T05:43:01.888Z,8.53
2018-05-25T05:45:29.521Z,8.87
2018-05-25T05:47:57.183Z,8.60
2018-05-25T05:50:24.783Z,9.00
2018-05-25T05:52:52.446Z,10.07
2018-05-25T05:55:20.219Z,8.80
2018-05-25T05:57:48.078Z,9.00
2018-05-25T06:00:15.864Z,7.90
2018-05-25T06:02:43.696Z,8.30
2018-05-25T06:05:11.576Z,9.37
2018-05-25T06:07:39.672Z,8.13
2018-05-25T06:10:07.399Z,8.80
2018-05-25T06:12:35.471Z,7.80
2018-05-25T06:15:03.573Z,8.40
2018-05-25T06:17:31.200Z,8.20
2018-05-25T06:19:59.201Z,7.50
2018-05-25T06:22:26.919Z,6.83
2018-05-25T06:24:54.671Z,5.60
2018-05-25T06:27:22.587Z,5.67
2018-05-25T06:29:50.246Z,6.70
2018-05-25T06:32:19.985Z,6.27
2018-05-25T06:34:47.739Z,4.90
2018-05-25T06:37:15.380Z,4.80
2018-05-25T06:39:44.018Z,4.47
2018-05-25T06:42:11.616Z,4.80
2018-05-25T06:44:39.252Z,5.23
2018-05-25T06:47:09.527Z,3.70
2018-05-25T06:49:40.953Z,4.33
2018-05-25T06:52:09.757Z,4.60
2018-05-25T06:54:37.812Z,5.13
2018-05-25T06:57:05.418Z,5.17
2018-05-25T06:59:35.189Z,5.23
2018-05-25T07:02:02.885Z,4.07
2018-05-25T07:04:30.544Z,4.30
2018-05-25T07:07:00.836Z,4.33
2018-05-25T07:09:30.406Z,3.90
2018-05-25T07:11:58.582Z,4.23
2018-05-25T07:14:26.283Z,4.77
2018-05-25T07:16:54.518Z,3.70
2018-05-25T07:19:22.176Z,3.03
2018-05-25T07:21:50.570Z,3.33
2018-05-25T07:24:18.366Z,2.83
2018-05-25T07:26:46.088Z,2.60
2018-05-25T07:29:13.716Z,2.60
2018-05-25T07:31:41.416Z,2.00
2018-05-25T07:34:10.040Z,2.20
2018-05-25T07:36:37.665Z,2.57
2018-05-25T07:39:06.272Z,2.43
2018-05-25T07:41:34.990Z,2.60
2018-05-25T07:44:02.611Z,2.20
2018-05-25T07:46:30.280Z,3.40
2018-05-25T07:48:59.239Z,2.03
2018-05-25T07:51:26.930Z,2.67
2018-05-25T07:53:54.613Z,2.50
2018-05-25T07:56:23.191Z,2.87
2018-05-25T07:58:51.679Z,2.60
2018-05-25T08:01:22.953Z,3.17
2018-05-25T08:03:50.732Z,3.17
2018-05-25T08:06:18.379Z,3.70
2018-05-25T08:08:46.707Z,2.50
2018-05-25T08:11:15.136Z,2.20
2018-05-25T08:13:42.765Z,3.33
2018-05-25T08:16:11.413Z,3.37
2018-05-25T08:18:39.078Z,2.87
2018-05-25T08:21:06.739Z,3.60
2018-05-25T08:23:34.443Z,3.30
2018-05-25T08:26:02.181Z,3.50
2018-05-25T08:28:30.060Z,3.50
2018-05-25T08:30:57.754Z,3.67
2018-05-25T08:33:25.599Z,3.43
2018-05-25T08:35:54.230Z,3.47
2018-05-25T08:38:23.290Z,3.20
2018-05-25T08:40:51.233Z,3.60
2018-05-25T08:43:19.138Z,4.10
2018-05-25T08:45:47.244Z,4.00
2018-05-25T08:48:15.068Z,4.23
2018-05-25T08:50:42.746Z,3.60
2018-05-25T08:53:10.389Z,3.13
2018-05-25T08:55:38.090Z,4.37
2018-05-25T08:58:06.903Z,4.67
2018-05-25T09:00:36.899Z,4.27
2018-05-25T09:03:04.726Z,3.90
2018-05-25T09:08:23.587Z,3.40
2018-05-25T09:10:51.312Z,3.53
2018-05-25T09:13:19.059Z,3.83
2018-05-25T09:15:46.728Z,3.00
2018-05-25T09:18:14.864Z,3.00
2018-05-25T09:20:43.251Z,2.47
2018-05-25T09:23:12.594Z,2.87
2018-05-25T09:25:41.946Z,3.17
2018-05-25T09:28:09.613Z,3.90
2018-05-25T09:30:38.084Z,3.27
2018-05-25T09:33:06.164Z,3.77
2018-05-25T09:35:34.770Z,3.33
2018-05-25T09:38:02.606Z,3.40
2018-05-25T09:40:30.715Z,3.00
2018-05-25T09:43:00.493Z,3.30
2018-05-25T09:45:28.264Z,4.03
2018-05-25T09:47:55.956Z,3.93
2018-05-25T09:50:24.199Z,4.00
2018-05-25T09:52:51.817Z,4.47
2018-05-25T09:55:19.510Z,3.33
2018-05-25T09:57:57.425Z,3.37
2018-05-25T10:00:26.226Z,3.73
2018-05-25T10:02:53.980Z,4.00
2018-05-25T10:05:22.047Z,3.40
2018-05-25T10:07:50.024Z,3.40
2018-05-25T10:10:18.088Z,3.53
2018-05-25T10:12:46.782Z,2.60
2018-05-25T10:15:15.257Z,3.23
2018-05-25T10:17:43.131Z,2.80
2018-05-25T10:20:10.883Z,2.90
2018-05-25T10:22:39.188Z,3.40
2018-05-25T10:25:06.942Z,3.20
2018-05-25T10:27:35.183Z,3.10
2018-05-25T10:30:03.251Z,2.37
2018-05-25T10:32:31.049Z,2.90
2018-05-25T10:35:00.911Z,2.40
2018-05-25T10:37:28.805Z,2.53
2018-05-25T10:39:56.827Z,5.10
2018-05-25T10:42:25.286Z,3.70
2018-05-25T10:44:54.176Z,3.93
2018-05-25T10:47:22.019Z,5.40
2018-05-25T10:49:49.688Z,4.47
2018-05-25T10:52:17.568Z,5.50
2018-05-25T10:54:45.243Z,3.90
2018-05-25T10:57:12.906Z,4.53
2018-05-25T10:59:45.380Z,3.63
2018-05-25T11:02:13.141Z,5.30
2018-05-25T11:04:41.623Z,3.77
2018-05-25T11:07:09.818Z,3.27
2018-05-25T11:09:37.674Z,3.83
2018-05-25T11:12:05.623Z,4.33
2018-05-25T11:14:35.682Z,3.67
2018-05-25T11:17:04.526Z,3.53
2018-05-25T11:19:33.423Z,3.53
2018-05-25T11:22:02.120Z,3.60
2018-05-25T11:24:31.116Z,3.07
2018-05-25T11:26:59.203Z,3.33
2018-05-25T11:29:27.870Z,2.83
2018-05-25T11:31:58.048Z,3.43
2018-05-25T11:34:26.018Z,4.00
2018-05-25T11:36:56.231Z,3.50
2018-05-25T11:39:24.774Z,4.00
2018-05-25T11:41:54.708Z,3.90
2018-05-25T11:44:23.367Z,4.43
2018-05-25T11:46:51.256Z,3.83
2018-05-25T11:49:19.013Z,4.43
2018-05-25T11:51:47.593Z,4.07
2018-05-25T11:54:15.448Z,4.30
2018-05-25T11:56:43.313Z,4.17
2018-05-25T11:59:11.790Z,4.10
2018-05-25T12:01:39.522Z,4.53
2018-05-25T12:04:09.790Z,4.00
2018-05-25T12:06:38.912Z,4.43
2018-05-25T12:09:07.203Z,3.43
2018-05-25T12:11:35.803Z,4.47
2018-05-25T12:14:04.331Z,4.90
2018-05-25T12:16:35.034Z,3.47
2018-05-25T12:19:02.663Z,3.40
2018-05-25T12:21:31.893Z,3.60
2018-05-25T12:23:59.782Z,3.40
2018-05-25T12:26:27.655Z,3.47
2018-05-25T12:28:55.570Z,3.50
2018-05-25T12:31:24.033Z,3.50
2018-05-25T12:33:54.524Z,4.30
2018-05-25T12:36:23.195Z,4.23
2018-05-25T12:38:50.989Z,3.93
2018-05-25T12:41:19.295Z,4.37
2018-05-25T12:43:46.929Z,4.93
2018-05-25T12:46:15.813Z,4.63
2018-05-25T12:48:43.637Z,4.90
2018-05-25T12:51:11.605Z,4.83
2018-05-25T12:53:40.324Z,4.90
2018-05-25T12:56:08.369Z,6.13
2018-05-25T12:58:36.996Z,5.60
2018-05-25T13:01:06.617Z,5.23
2018-05-25T13:03:34.471Z,5.00
2018-05-25T13:06:02.380Z,5.13
2018-05-25T13:08:30.950Z,5.23
2018-05-25T13:10:59.543Z,5.47
2018-05-25T13:13:27.387Z,4.93
2018-05-25T13:15:55.297Z,6.20
2018-05-25T13:18:23.831Z,6.57
2018-05-25T13:20:52.061Z,6.37
2018-05-25T13:23:20.056Z,5.57
2018-05-25T13:25:48.123Z,5.90
2018-05-25T13:28:15.786Z,5.30
2018-05-25T13:30:44.490Z,4.93
2018-05-25T13:33:13.975Z,5.67
2018-05-25T13:35:42.729Z,5.20
2018-05-25T13:38:11.407Z,5.30
2018-05-25T13:40:39.853Z,4.80
2018-05-25T13:43:09.648Z,3.30
2018-05-25T13:45:37.330Z,3.70
2018-05-25T13:48:05.963Z,4.03
2018-05-25T13:50:34.244Z,5.23
2018-05-25T13:53:02.770Z,4.80
2018-05-25T13:55:31.050Z,4.67
2018-05-25T13:57:59.992Z,5.83
2018-05-25T14:00:27.946Z,5.80
2018-05-25T14:02:56.042Z,6.03
2018-05-25T14:05:23.977Z,4.63
2018-05-25T14:07:51.826Z,5.40
2018-05-25T14:10:19.862Z,4.60
2018-05-25T14:12:48.284Z,5.00
2018-05-25T14:15:16.005Z,4.67
2018-05-25T14:17:43.641Z,5.27
2018-05-25T14:20:11.840Z,3.87
2018-05-25T14:22:40.794Z,4.10
2018-05-25T14:25:10.120Z,4.10
2018-05-25T14:27:38.033Z,4.03
2018-05-25T14:30:05.764Z,4.13
2018-05-25T14:32:33.444Z,5.03
2018-05-25T14:35:02.726Z,3.70
2018-05-25T14:37:30.735Z,4.77
2018-05-25T14:39:58.552Z,5.33
2018-05-25T14:42:26.666Z,4.27
2018-05-25T14:44:54.324Z,4.43
2018-05-25T14:47:21.989Z,4.90
2018-05-25T14:49:49.999Z,4.43
2018-05-25T14:52:17.836Z,5.20
2018-05-25T14:54:45.662Z,4.63
2018-05-25T14:57:14.488Z,4.60
2018-05-25T14:59:42.444Z,5.10
2018-05-25T15:02:11.579Z,4.90
2018-05-25T15:04:40.033Z,5.20
2018-05-25T15:07:07.675Z,4.83
2018-05-25T15:09:35.584Z,5.67
2018-05-25T15:12:03.341Z,5.33
2018-05-25T15:14:31.404Z,5.40
2018-05-25T15:17:00.245Z,5.00
2018-05-25T15:19:29.859Z,5.83
2018-05-25T15:21:57.765Z,5.23
2018-05-25T15:24:26.553Z,5.80
2018-05-25T15:26:54.568Z,5.10
2018-05-25T15:29:22.357Z,6.27
2018-05-25T15:31:51.302Z,4.93
2018-05-25T15:34:19.568Z,5.70
2018-05-25T15:36:47.220Z,4.67
2018-05-25T15:39:14.912Z,4.93
2018-05-25T15:41:42.665Z,5.63
2018-05-25T15:44:10.401Z,5.40
2018-05-25T15:46:38.059Z,5.03
2018-05-25T15:49:05.740Z,5.60
2018-05-25T15:51:33.806Z,5.37
2018-05-25T15:54:01.594Z,5.57
2018-05-25T15:56:29.384Z,5.83
2018-05-25T15:58:57.356Z,6.60
2018-05-25T16:01:26.119Z,6.50
2018-05-25T16:03:54.200Z,6.17
2018-05-25T16:06:22.362Z,5.37
2018-05-25T16:08:50.993Z,5.23
2018-05-25T16:11:19.278Z,5.43
2018-05-25T16:13:47.275Z,5.20
2018-05-25T16:16:14.923Z,5.10
2018-05-25T16:18:42.906Z,5.50
2018-05-25T16:21:12.114Z,5.50
2018-05-25T16:23:40.782Z,4.20
2018-05-25T16:26:08.916Z,5.20
2018-05-25T16:28:36.855Z,5.10
2018-05-25T16:31:05.553Z,5.47
2018-05-25T16:33:34.633Z,5.40
2018-05-25T16:36:02.506Z,5.00
2018-05-25T16:38:30.259Z,4.83
2018-05-25T16:40:57.888Z,5.80
2018-05-25T16:43:26.098Z,5.27
2018-05-25T16:45:54.696Z,5.53
2018-05-25T16:48:22.546Z,5.40
2018-05-25T16:50:50.397Z,5.17
2018-05-25T16:53:18.426Z,5.43
2018-05-25T16:55:46.910Z,4.67
2018-05-25T16:58:15.407Z,5.63
2018-05-25T17:00:43.247Z,4.77
2018-05-25T17:03:11.023Z,5.27
2018-05-25T17:05:40.267Z,4.20
2018-05-25T17:08:08.151Z,4.90
2018-05-25T17:10:35.900Z,4.30
2018-05-25T17:13:04.665Z,5.40
2018-05-25T17:15:32.557Z,4.53
2018-05-25T17:18:01.401Z,5.10
2018-05-25T17:20:29.306Z,5.13
2018-05-25T17:22:57.663Z,5.33
2018-05-25T17:25:25.446Z,5.20
2018-05-25T17:27:53.206Z,4.23
2018-05-25T17:30:21.982Z,3.90
2018-05-25T17:32:51.149Z,4.20
2018-05-25T17:35:19.852Z,3.57
2018-05-25T17:37:48.233Z,3.53
2018-05-25T17:40:17.881Z,3.20
2018-05-25T17:42:45.949Z,3.30
2018-05-25T17:45:14.022Z,3.40
2018-05-25T17:47:41.887Z,3.13
2018-05-25T17:50:09.561Z,2.97
2018-05-25T17:52:38.864Z,2.77
2018-05-25T17:55:06.619Z,2.27
2018-05-25T17:57:34.688Z,3.00
2018-05-25T18:00:03.585Z,3.13
2018-05-25T18:02:31.269Z,3.33
2018-05-25T18:04:58.902Z,2.90
2018-05-25T18:07:27.569Z,3.60
2018-05-25T18:09:55.238Z,2.40
2018-05-25T18:12:24.052Z,2.40
2018-05-25T18:14:52.533Z,2.87
2018-05-25T18:17:21.218Z,3.30
2018-05-25T18:19:50.071Z,2.70
2018-05-25T18:22:18.657Z,2.13
2018-05-25T18:24:46.656Z,3.53
2018-05-25T18:27:14.342Z,2.43
2018-05-25T18:29:42.235Z,2.90
2018-05-25T18:32:13.702Z,2.87
2018-05-25T18:34:41.318Z,2.77
2018-05-25T18:37:10.331Z,3.03
2018-05-25T18:39:38.613Z,2.60
2018-05-25T18:42:07.739Z,3.63
2018-05-25T18:44:35.592Z,1.97
2018-05-25T18:47:05.828Z,3.10
2018-05-25T18:49:33.695Z,2.57
2018-05-25T18:52:01.383Z,3.00
2018-05-25T18:54:34.937Z,2.50
2018-05-25T18:57:03.183Z,2.37
2018-05-25T18:59:31.232Z,3.00
2018-05-25T19:01:59.958Z,2.30
2018-05-25T19:04:28.458Z,2.37
2018-05-25T19:06:56.493Z,2.83
2018-05-25T19:09:24.242Z,2.20
2018-05-25T19:11:52.696Z,2.30
2018-05-25T19:14:22.229Z,1.90
2018-05-25T19:16:49.886Z,2.57
2018-05-25T19:19:17.966Z,3.10
2018-05-25T19:21:46.031Z,2.47
2018-05-25T19:24:14.001Z,2.13
2018-05-25T19:26:41.736Z,2.53
2018-05-25T19:29:10.143Z,2.47
2018-05-25T19:31:39.794Z,2.30
2018-05-25T19:34:07.450Z,1.80
2018-05-25T19:36:35.497Z,2.80
2018-05-25T19:39:03.498Z,2.23
2018-05-25T19:41:31.532Z,1.83
2018-05-25T19:43:59.492Z,1.90
2018-05-25T19:46:27.471Z,2.30
2018-05-25T19:48:57.539Z,1.97
2018-05-25T19:51:25.271Z,2.93
2018-05-25T19:53:53.529Z,2.23
2018-05-25T19:56:21.412Z,2.17
2018-05-25T19:58:49.266Z,2.30
2018-05-25T20:01:16.975Z,2.20
2018-05-25T20:03:44.677Z,2.40
2018-05-25T20:06:12.521Z,2.13
2018-05-25T20:08:41.529Z,2.63
2018-05-25T20:11:09.603Z,2.20
2018-05-25T20:13:37.488Z,2.20
2018-05-25T20:16:05.462Z,2.80
2018-05-25T20:18:34.324Z,2.43
2018-05-25T20:21:03.042Z,2.20
2018-05-25T20:23:30.767Z,2.50
2018-05-25T20:25:59.485Z,2.37
2018-05-25T20:28:27.252Z,2.13
2018-05-25T20:30:56.006Z,1.87
2018-05-25T20:33:23.781Z,2.40
2018-05-25T20:35:52.472Z,2.67
2018-05-25T20:38:20.129Z,3.10
2018-05-25T20:40:47.987Z,3.27
2018-05-25T20:43:16.382Z,2.37
2018-05-25T20:45:44.052Z,2.00
2018-05-25T20:48:11.736Z,2.47
2018-05-25T20:50:39.395Z,2.57
2018-05-25T20:53:08.355Z,2.30
2018-05-25T20:55:36.024Z,2.60
2018-05-25T20:58:05.096Z,2.50
2018-05-25T21:00:32.807Z,2.53
2018-05-25T21:03:00.473Z,2.60
2018-05-25T21:05:28.085Z,2.63
2018-05-25T21:07:55.750Z,2.70
2018-05-25T21:10:23.371Z,2.40
2018-05-25T21:12:51.013Z,2.10
2018-05-25T21:15:18.608Z,2.60
2018-05-25T21:17:46.260Z,2.50
2018-05-25T21:20:13.896Z,2.77
2018-05-25T21:22:41.530Z,2.30
2018-05-25T21:25:09.200Z,2.20
2018-05-25T21:27:36.800Z,2.70
2018-05-25T21:30:04.557Z,2.13
2018-05-25T21:32:33.394Z,2.70
2018-05-25T21:35:01.071Z,2.60
2018-05-25T21:37:28.662Z,2.70
2018-05-25T21:39:56.341Z,3.30
2018-05-25T21:42:23.957Z,2.57
2018-05-25T21:44:51.602Z,2.13
2018-05-25T21:47:19.237Z,2.90
2018-05-25T21:49:46.905Z,2.13
2018-05-25T21:52:15.478Z,1.87
2018-05-25T21:54:43.148Z,2.33
2018-05-25T21:57:10.815Z,2.50
2018-05-25T21:59:38.463Z,2.20
2018-05-25T22:02:06.116Z,3.30
2018-05-25T22:04:33.758Z,3.60
2018-05-25T22:07:01.359Z,3.10
2018-05-25T22:09:29.016Z,2.23
2018-05-25T22:11:57.206Z,3.57
2018-05-25T22:14:24.940Z,2.50
2018-05-25T22:16:52.644Z,2.60
2018-05-25T22:19:20.270Z,2.20
2018-05-25T22:21:47.967Z,2.50
2018-05-25T22:24:15.599Z,2.27
2018-05-25T22:26:43.249Z,2.33
2018-05-25T22:29:10.944Z,2.40
2018-05-25T22:31:38.602Z,3.33
2018-05-25T22:34:06.469Z,3.20
2018-05-25T22:36:34.167Z,2.20
2018-05-25T22:39:01.771Z,2.00
2018-05-25T22:41:30.036Z,2.60
2018-05-25T22:44:09.486Z,3.07
2018-05-25T22:46:48.706Z,2.60
2018-05-25T22:49:27.852Z,2.57
2018-05-25T22:52:07.123Z,3.40
2018-05-25T22:54:40.256Z,3.07
2018-05-25T22:57:07.915Z,2.80
2018-05-25T22:59:35.914Z,2.93
2018-05-25T23:02:03.577Z,2.77
2018-05-25T23:04:32.138Z,2.73
2018-05-25T23:06:59.829Z,2.30
2018-05-25T23:09:27.501Z,2.90
2018-05-25T23:11:55.138Z,2.40
2018-05-25T23:14:22.791Z,1.83
2018-05-25T23:16:50.393Z,2.67
2018-05-25T23:19:18.034Z,2.50
2018-05-25T23:21:45.667Z,2.67
2018-05-25T23:24:13.352Z,2.57
2018-05-25T23:26:41.007Z,2.57
2018-05-25T23:29:08.672Z,2.63
2018-05-25T23:31:37.183Z,3.37
2018-05-25T23:34:04.842Z,2.80
2018-05-25T23:36:32.457Z,2.93
2018-05-25T23:39:00.131Z,2.20
2018-05-25T23:41:27.777Z,2.40
2018-05-25T23:43:55.380Z,2.50
2018-05-25T23:46:23.029Z,3.27
2018-05-25T23:48:50.734Z,4.40
2018-05-25T23:51:18.439Z,4.07
2018-05-25T23:53:46.043Z,4.07
2018-05-25T23:56:13.712Z,4.53
2018-05-25T23:58:41.313Z,3.97
